sensor_id;sensor_type;location;lat;lon;timestamp;temperature;humidity
72883;DHT22;61017;37.812;-122.286;2023-07-16T00:00:54;19.60;95.20
72883;DHT22;61017;37.812;-122.286;2023-07-16T00:02:29;19.60;95.40
72883;DHT22;61017;37.812;-122.286;2023-07-16T00:04:00;19.60;95.40
72883;DHT22;61017;37.812;-122.286;2023-07-16T00:05:32;19.70;95.40
72883;DHT22;61017;37.812;-122.286;2023-07-16T00:07:03;19.60;95.30
72883;DHT22;61017;37.812;-122.286;2023-07-16T00:08:35;19.70;95.50
72883;DHT22;61017;37.812;-122.286;2023-07-16T00:10:07;19.60;95.40
72883;DHT22;61017;37.812;-122.286;2023-07-16T00:11:38;19.60;95.50
72883;DHT22;61017;37.812;-122.286;2023-07-16T00:13:10;19.60;95.60
72883;DHT22;61017;37.812;-122.286;2023-07-16T00:14:42;19.60;95.70
72883;DHT22;61017;37.812;-122.286;2023-07-16T00:16:14;19.50;95.60
72883;DHT22;61017;37.812;-122.286;2023-07-16T00:17:49;19.50;95.70
72883;DHT22;61017;37.812;-122.286;2023-07-16T00:19:20;19.60;95.70
72883;DHT22;61017;37.812;-122.286;2023-07-16T00:20:52;19.60;95.60
72883;DHT22;61017;37.812;-122.286;2023-07-16T00:22:23;19.60;95.50
72883;DHT22;61017;37.812;-122.286;2023-07-16T00:23:55;19.50;95.60
72883;DHT22;61017;37.812;-122.286;2023-07-16T00:25:26;19.50;95.90
72883;DHT22;61017;37.812;-122.286;2023-07-16T00:26:58;19.50;95.80
72883;DHT22;61017;37.812;-122.286;2023-07-16T00:28:30;19.50;95.80
72883;DHT22;61017;37.812;-122.286;2023-07-16T00:30:02;19.50;95.80
72883;DHT22;61017;37.812;-122.286;2023-07-16T00:31:35;19.50;95.80
72883;DHT22;61017;37.812;-122.286;2023-07-16T00:33:06;19.40;95.80
72883;DHT22;61017;37.812;-122.286;2023-07-16T00:34:38;19.40;95.90
72883;DHT22;61017;37.812;-122.286;2023-07-16T00:36:09;19.40;96.00
72883;DHT22;61017;37.812;-122.286;2023-07-16T00:37:41;19.40;96.00
72883;DHT22;61017;37.812;-122.286;2023-07-16T00:39:12;19.50;96.00
72883;DHT22;61017;37.812;-122.286;2023-07-16T00:40:44;19.40;96.00
72883;DHT22;61017;37.812;-122.286;2023-07-16T00:42:17;19.40;96.00
72883;DHT22;61017;37.812;-122.286;2023-07-16T00:43:49;19.40;96.20
72883;DHT22;61017;37.812;-122.286;2023-07-16T00:45:20;19.40;96.30
72883;DHT22;61017;37.812;-122.286;2023-07-16T00:46:52;19.40;96.30
72883;DHT22;61017;37.812;-122.286;2023-07-16T00:48:23;19.40;96.30
72883;DHT22;61017;37.812;-122.286;2023-07-16T00:49:58;19.40;96.40
72883;DHT22;61017;37.812;-122.286;2023-07-16T00:51:30;19.40;96.30
72883;DHT22;61017;37.812;-122.286;2023-07-16T00:53:01;19.40;96.30
72883;DHT22;61017;37.812;-122.286;2023-07-16T00:54:33;19.40;96.30
72883;DHT22;61017;37.812;-122.286;2023-07-16T00:56:05;19.40;96.30
72883;DHT22;61017;37.812;-122.286;2023-07-16T00:57:38;19.40;96.40
72883;DHT22;61017;37.812;-122.286;2023-07-16T00:59:10;19.50;96.40
72883;DHT22;61017;37.812;-122.286;2023-07-16T01:00:42;19.50;96.40
72883;DHT22;61017;37.812;-122.286;2023-07-16T01:02:13;19.50;96.40
72883;DHT22;61017;37.812;-122.286;2023-07-16T01:03:45;19.40;96.30
72883;DHT22;61017;37.812;-122.286;2023-07-16T01:05:16;19.50;96.30
72883;DHT22;61017;37.812;-122.286;2023-07-16T01:06:51;19.50;96.20
72883;DHT22;61017;37.812;-122.286;2023-07-16T01:08:41;19.50;96.40
72883;DHT22;61017;37.812;-122.286;2023-07-16T01:10:14;19.50;96.30
72883;DHT22;61017;37.812;-122.286;2023-07-16T01:11:47;19.50;96.20
72883;DHT22;61017;37.812;-122.286;2023-07-16T01:13:19;19.50;96.10
72883;DHT22;61017;37.812;-122.286;2023-07-16T01:14:51;19.50;96.10
72883;DHT22;61017;37.812;-122.286;2023-07-16T01:16:24;19.50;96.10
72883;DHT22;61017;37.812;-122.286;2023-07-16T01:17:56;19.50;96.00
72883;DHT22;61017;37.812;-122.286;2023-07-16T01:19:27;19.50;96.10
72883;DHT22;61017;37.812;-122.286;2023-07-16T01:20:59;19.50;96.10
72883;DHT22;61017;37.812;-122.286;2023-07-16T01:24:29;19.40;96.30
72883;DHT22;61017;37.812;-122.286;2023-07-16T01:26:08;19.40;96.20
72883;DHT22;61017;37.812;-122.286;2023-07-16T01:29:51;19.40;96.20
72883;DHT22;61017;37.812;-122.286;2023-07-16T01:31:25;19.40;96.20
72883;DHT22;61017;37.812;-122.286;2023-07-16T01:32:57;19.30;95.90
72883;DHT22;61017;37.812;-122.286;2023-07-16T01:34:32;19.30;96.00
72883;DHT22;61017;37.812;-122.286;2023-07-16T01:36:04;19.30;96.30
72883;DHT22;61017;37.812;-122.286;2023-07-16T01:37:35;19.30;96.30
72883;DHT22;61017;37.812;-122.286;2023-07-16T01:39:07;19.30;96.40
72883;DHT22;61017;37.812;-122.286;2023-07-16T01:40:39;19.40;96.40
72883;DHT22;61017;37.812;-122.286;2023-07-16T01:42:10;19.40;96.40
72883;DHT22;61017;37.812;-122.286;2023-07-16T01:43:42;19.40;96.30
72883;DHT22;61017;37.812;-122.286;2023-07-16T01:45:13;19.40;96.40
72883;DHT22;61017;37.812;-122.286;2023-07-16T01:47:12;19.40;96.40
72883;DHT22;61017;37.812;-122.286;2023-07-16T01:48:41;19.30;96.50
72883;DHT22;61017;37.812;-122.286;2023-07-16T01:50:13;19.30;96.40
72883;DHT22;61017;37.812;-122.286;2023-07-16T01:51:44;19.30;96.50
72883;DHT22;61017;37.812;-122.286;2023-07-16T01:53:16;19.30;96.60
72883;DHT22;61017;37.812;-122.286;2023-07-16T01:54:48;19.30;96.60
72883;DHT22;61017;37.812;-122.286;2023-07-16T01:56:19;19.30;96.60
72883;DHT22;61017;37.812;-122.286;2023-07-16T01:57:51;19.30;96.50
72883;DHT22;61017;37.812;-122.286;2023-07-16T01:59:23;19.20;96.30
72883;DHT22;61017;37.812;-122.286;2023-07-16T02:00:54;19.20;96.40
72883;DHT22;61017;37.812;-122.286;2023-07-16T02:02:27;19.20;96.50
72883;DHT22;61017;37.812;-122.286;2023-07-16T02:03:58;19.10;96.50
72883;DHT22;61017;37.812;-122.286;2023-07-16T02:05:30;19.10;96.50
72883;DHT22;61017;37.812;-122.286;2023-07-16T02:07:01;19.10;96.50
72883;DHT22;61017;37.812;-122.286;2023-07-16T02:08:33;19.00;96.50
72883;DHT22;61017;37.812;-122.286;2023-07-16T02:10:05;19.00;96.50
72883;DHT22;61017;37.812;-122.286;2023-07-16T02:11:37;18.90;96.50
72883;DHT22;61017;37.812;-122.286;2023-07-16T02:13:08;19.00;96.60
72883;DHT22;61017;37.812;-122.286;2023-07-16T02:14:40;19.00;96.70
72883;DHT22;61017;37.812;-122.286;2023-07-16T02:16:11;19.00;96.70
72883;DHT22;61017;37.812;-122.286;2023-07-16T02:17:43;19.00;96.60
72883;DHT22;61017;37.812;-122.286;2023-07-16T02:19:15;18.90;96.60
72883;DHT22;61017;37.812;-122.286;2023-07-16T02:20:46;18.90;96.70
72883;DHT22;61017;37.812;-122.286;2023-07-16T02:22:18;18.90;96.70
72883;DHT22;61017;37.812;-122.286;2023-07-16T02:23:49;18.90;96.70
72883;DHT22;61017;37.812;-122.286;2023-07-16T02:25:21;18.90;96.80
72883;DHT22;61017;37.812;-122.286;2023-07-16T02:26:53;18.90;96.70
72883;DHT22;61017;37.812;-122.286;2023-07-16T02:28:24;18.90;96.60
72883;DHT22;61017;37.812;-122.286;2023-07-16T02:29:56;18.90;96.50
72883;DHT22;61017;37.812;-122.286;2023-07-16T02:31:27;18.90;96.70
72883;DHT22;61017;37.812;-122.286;2023-07-16T02:32:59;18.80;96.60
72883;DHT22;61017;37.812;-122.286;2023-07-16T02:34:31;18.80;96.70
72883;DHT22;61017;37.812;-122.286;2023-07-16T02:36:02;18.80;96.70
72883;DHT22;61017;37.812;-122.286;2023-07-16T02:37:34;18.80;96.60
72883;DHT22;61017;37.812;-122.286;2023-07-16T02:39:06;18.70;96.60
72883;DHT22;61017;37.812;-122.286;2023-07-16T02:40:46;18.80;96.70
72883;DHT22;61017;37.812;-122.286;2023-07-16T02:42:18;18.70;96.50
72883;DHT22;61017;37.812;-122.286;2023-07-16T02:43:59;18.70;96.40
72883;DHT22;61017;37.812;-122.286;2023-07-16T02:45:31;18.70;96.40
72883;DHT22;61017;37.812;-122.286;2023-07-16T02:47:03;18.70;96.90
72883;DHT22;61017;37.812;-122.286;2023-07-16T02:48:35;18.60;96.40
72883;DHT22;61017;37.812;-122.286;2023-07-16T02:50:07;18.60;96.60
72883;DHT22;61017;37.812;-122.286;2023-07-16T02:51:38;18.60;96.80
72883;DHT22;61017;37.812;-122.286;2023-07-16T02:53:10;18.70;96.90
72883;DHT22;61017;37.812;-122.286;2023-07-16T02:54:42;18.70;96.90
72883;DHT22;61017;37.812;-122.286;2023-07-16T02:56:13;18.60;97.00
72883;DHT22;61017;37.812;-122.286;2023-07-16T02:57:45;18.60;97.10
72883;DHT22;61017;37.812;-122.286;2023-07-16T02:59:17;18.60;97.10
72883;DHT22;61017;37.812;-122.286;2023-07-16T03:00:48;18.60;97.10
72883;DHT22;61017;37.812;-122.286;2023-07-16T03:02:20;18.60;96.90
72883;DHT22;61017;37.812;-122.286;2023-07-16T03:03:51;18.60;96.90
72883;DHT22;61017;37.812;-122.286;2023-07-16T03:05:23;18.50;96.60
72883;DHT22;61017;37.812;-122.286;2023-07-16T03:06:54;18.50;96.80
72883;DHT22;61017;37.812;-122.286;2023-07-16T03:08:26;18.40;97.00
72883;DHT22;61017;37.812;-122.286;2023-07-16T03:09:59;18.40;97.10
72883;DHT22;61017;37.812;-122.286;2023-07-16T03:11:31;18.50;97.40
72883;DHT22;61017;37.812;-122.286;2023-07-16T03:13:03;18.40;97.40
72883;DHT22;61017;37.812;-122.286;2023-07-16T03:14:34;18.40;97.40
72883;DHT22;61017;37.812;-122.286;2023-07-16T03:16:06;18.40;97.50
72883;DHT22;61017;37.812;-122.286;2023-07-16T03:17:40;18.40;97.50
72883;DHT22;61017;37.812;-122.286;2023-07-16T03:19:11;18.40;97.40
72883;DHT22;61017;37.812;-122.286;2023-07-16T03:20:43;18.40;97.50
72883;DHT22;61017;37.812;-122.286;2023-07-16T03:22:15;18.40;97.50
72883;DHT22;61017;37.812;-122.286;2023-07-16T03:23:46;18.40;97.50
72883;DHT22;61017;37.812;-122.286;2023-07-16T03:25:18;18.40;97.50
72883;DHT22;61017;37.812;-122.286;2023-07-16T03:26:51;18.30;97.50
72883;DHT22;61017;37.812;-122.286;2023-07-16T03:28:22;18.30;97.60
72883;DHT22;61017;37.812;-122.286;2023-07-16T03:29:54;18.30;97.60
72883;DHT22;61017;37.812;-122.286;2023-07-16T03:31:26;18.20;97.70
72883;DHT22;61017;37.812;-122.286;2023-07-16T03:33:00;18.20;97.80
72883;DHT22;61017;37.812;-122.286;2023-07-16T03:34:34;18.20;98.00
72883;DHT22;61017;37.812;-122.286;2023-07-16T03:36:06;18.10;97.90
72883;DHT22;61017;37.812;-122.286;2023-07-16T03:37:37;18.10;97.90
72883;DHT22;61017;37.812;-122.286;2023-07-16T03:39:09;18.10;97.90
72883;DHT22;61017;37.812;-122.286;2023-07-16T03:40:47;18.10;97.90
72883;DHT22;61017;37.812;-122.286;2023-07-16T03:42:19;18.10;97.90
72883;DHT22;61017;37.812;-122.286;2023-07-16T03:43:50;18.00;98.00
72883;DHT22;61017;37.812;-122.286;2023-07-16T03:45:22;18.10;98.00
72883;DHT22;61017;37.812;-122.286;2023-07-16T03:46:53;18.10;98.00
72883;DHT22;61017;37.812;-122.286;2023-07-16T03:48:25;18.10;98.10
72883;DHT22;61017;37.812;-122.286;2023-07-16T03:49:56;18.10;98.10
72883;DHT22;61017;37.812;-122.286;2023-07-16T03:51:28;18.10;98.10
72883;DHT22;61017;37.812;-122.286;2023-07-16T03:52:59;18.10;98.00
72883;DHT22;61017;37.812;-122.286;2023-07-16T03:54:31;18.10;97.90
72883;DHT22;61017;37.812;-122.286;2023-07-16T03:56:03;18.10;97.80
72883;DHT22;61017;37.812;-122.286;2023-07-16T03:57:34;18.10;97.70
72883;DHT22;61017;37.812;-122.286;2023-07-16T03:59:06;18.10;97.70
72883;DHT22;61017;37.812;-122.286;2023-07-16T04:00:38;18.00;97.70
72883;DHT22;61017;37.812;-122.286;2023-07-16T04:02:09;18.00;97.60
72883;DHT22;61017;37.812;-122.286;2023-07-16T04:03:41;18.00;97.60
72883;DHT22;61017;37.812;-122.286;2023-07-16T04:05:12;17.90;97.60
72883;DHT22;61017;37.812;-122.286;2023-07-16T04:06:44;17.90;97.80
72883;DHT22;61017;37.812;-122.286;2023-07-16T04:08:16;17.90;97.70
72883;DHT22;61017;37.812;-122.286;2023-07-16T04:09:47;17.80;97.70
72883;DHT22;61017;37.812;-122.286;2023-07-16T04:11:19;17.80;97.70
72883;DHT22;61017;37.812;-122.286;2023-07-16T04:12:50;17.80;97.70
72883;DHT22;61017;37.812;-122.286;2023-07-16T04:14:22;17.70;97.80
72883;DHT22;61017;37.812;-122.286;2023-07-16T04:15:53;17.70;97.90
72883;DHT22;61017;37.812;-122.286;2023-07-16T04:17:25;17.70;98.20
72883;DHT22;61017;37.812;-122.286;2023-07-16T04:18:57;17.70;97.80
72883;DHT22;61017;37.812;-122.286;2023-07-16T04:20:28;17.70;97.80
72883;DHT22;61017;37.812;-122.286;2023-07-16T04:22:00;17.70;97.90
72883;DHT22;61017;37.812;-122.286;2023-07-16T04:23:32;17.70;98.10
72883;DHT22;61017;37.812;-122.286;2023-07-16T04:25:04;17.60;98.20
72883;DHT22;61017;37.812;-122.286;2023-07-16T04:26:36;17.60;98.30
72883;DHT22;61017;37.812;-122.286;2023-07-16T04:28:07;17.60;98.40
72883;DHT22;61017;37.812;-122.286;2023-07-16T04:29:39;17.60;98.40
72883;DHT22;61017;37.812;-122.286;2023-07-16T04:31:11;17.60;98.50
72883;DHT22;61017;37.812;-122.286;2023-07-16T04:32:42;17.50;98.50
72883;DHT22;61017;37.812;-122.286;2023-07-16T04:34:14;17.50;98.50
72883;DHT22;61017;37.812;-122.286;2023-07-16T04:35:45;17.50;98.60
72883;DHT22;61017;37.812;-122.286;2023-07-16T04:37:17;17.40;98.60
72883;DHT22;61017;37.812;-122.286;2023-07-16T04:38:48;17.40;98.70
72883;DHT22;61017;37.812;-122.286;2023-07-16T04:40:20;17.40;98.60
72883;DHT22;61017;37.812;-122.286;2023-07-16T04:41:52;17.50;98.60
72883;DHT22;61017;37.812;-122.286;2023-07-16T04:43:23;17.50;98.50
72883;DHT22;61017;37.812;-122.286;2023-07-16T04:44:55;17.60;98.40
72883;DHT22;61017;37.812;-122.286;2023-07-16T04:46:26;17.60;98.40
72883;DHT22;61017;37.812;-122.286;2023-07-16T04:47:58;17.60;98.40
72883;DHT22;61017;37.812;-122.286;2023-07-16T04:49:29;17.60;98.40
72883;DHT22;61017;37.812;-122.286;2023-07-16T04:51:01;17.60;98.40
72883;DHT22;61017;37.812;-122.286;2023-07-16T04:52:36;17.70;98.40
72883;DHT22;61017;37.812;-122.286;2023-07-16T04:54:07;17.70;98.40
72883;DHT22;61017;37.812;-122.286;2023-07-16T04:55:39;17.70;98.40
72883;DHT22;61017;37.812;-122.286;2023-07-16T04:57:13;17.70;98.40
72883;DHT22;61017;37.812;-122.286;2023-07-16T04:58:45;17.70;98.40
72883;DHT22;61017;37.812;-122.286;2023-07-16T05:00:16;17.70;98.40
72883;DHT22;61017;37.812;-122.286;2023-07-16T05:01:48;17.70;98.40
72883;DHT22;61017;37.812;-122.286;2023-07-16T05:03:19;17.70;98.40
72883;DHT22;61017;37.812;-122.286;2023-07-16T05:04:51;17.70;98.30
72883;DHT22;61017;37.812;-122.286;2023-07-16T05:06:23;17.70;98.30
72883;DHT22;61017;37.812;-122.286;2023-07-16T05:07:54;17.80;98.40
72883;DHT22;61017;37.812;-122.286;2023-07-16T05:09:26;17.80;98.30
72883;DHT22;61017;37.812;-122.286;2023-07-16T05:10:57;17.80;98.30
72883;DHT22;61017;37.812;-122.286;2023-07-16T05:12:29;17.80;98.30
72883;DHT22;61017;37.812;-122.286;2023-07-16T05:14:00;17.70;98.30
72883;DHT22;61017;37.812;-122.286;2023-07-16T05:15:32;17.70;98.30
72883;DHT22;61017;37.812;-122.286;2023-07-16T05:17:04;17.80;98.30
72883;DHT22;61017;37.812;-122.286;2023-07-16T05:18:36;17.80;98.30
72883;DHT22;61017;37.812;-122.286;2023-07-16T05:20:08;17.80;98.30
72883;DHT22;61017;37.812;-122.286;2023-07-16T05:21:39;17.80;98.20
72883;DHT22;61017;37.812;-122.286;2023-07-16T05:23:11;17.80;98.20
72883;DHT22;61017;37.812;-122.286;2023-07-16T05:24:42;17.80;98.20
72883;DHT22;61017;37.812;-122.286;2023-07-16T05:26:14;17.80;98.20
72883;DHT22;61017;37.812;-122.286;2023-07-16T05:27:45;17.80;98.20
72883;DHT22;61017;37.812;-122.286;2023-07-16T05:29:17;17.80;98.20
72883;DHT22;61017;37.812;-122.286;2023-07-16T05:31:01;17.80;98.20
72883;DHT22;61017;37.812;-122.286;2023-07-16T05:32:33;17.80;98.20
72883;DHT22;61017;37.812;-122.286;2023-07-16T05:34:04;17.80;98.20
72883;DHT22;61017;37.812;-122.286;2023-07-16T05:35:36;17.80;98.20
72883;DHT22;61017;37.812;-122.286;2023-07-16T05:37:08;17.80;98.20
72883;DHT22;61017;37.812;-122.286;2023-07-16T05:38:39;17.80;98.40
72883;DHT22;61017;37.812;-122.286;2023-07-16T05:40:12;17.80;98.20
72883;DHT22;61017;37.812;-122.286;2023-07-16T05:41:43;17.80;98.20
72883;DHT22;61017;37.812;-122.286;2023-07-16T05:43:15;17.80;98.20
72883;DHT22;61017;37.812;-122.286;2023-07-16T05:44:48;17.80;98.20
72883;DHT22;61017;37.812;-122.286;2023-07-16T05:46:19;17.80;98.20
72883;DHT22;61017;37.812;-122.286;2023-07-16T05:47:51;17.80;98.20
72883;DHT22;61017;37.812;-122.286;2023-07-16T05:49:24;17.80;98.20
72883;DHT22;61017;37.812;-122.286;2023-07-16T05:50:55;17.80;98.20
72883;DHT22;61017;37.812;-122.286;2023-07-16T05:52:26;17.80;98.20
72883;DHT22;61017;37.812;-122.286;2023-07-16T05:53:58;17.90;98.20
72883;DHT22;61017;37.812;-122.286;2023-07-16T05:55:30;17.80;98.20
72883;DHT22;61017;37.812;-122.286;2023-07-16T05:57:01;17.80;98.20
72883;DHT22;61017;37.812;-122.286;2023-07-16T05:58:33;17.80;98.20
72883;DHT22;61017;37.812;-122.286;2023-07-16T06:00:05;17.80;98.20
72883;DHT22;61017;37.812;-122.286;2023-07-16T06:01:37;17.80;98.20
72883;DHT22;61017;37.812;-122.286;2023-07-16T06:03:08;17.80;98.20
72883;DHT22;61017;37.812;-122.286;2023-07-16T06:04:40;17.80;98.10
72883;DHT22;61017;37.812;-122.286;2023-07-16T06:06:11;17.90;98.20
72883;DHT22;61017;37.812;-122.286;2023-07-16T06:07:43;17.80;98.10
72883;DHT22;61017;37.812;-122.286;2023-07-16T06:09:15;17.80;98.20
72883;DHT22;61017;37.812;-122.286;2023-07-16T06:10:46;17.80;98.10
72883;DHT22;61017;37.812;-122.286;2023-07-16T06:12:18;17.90;98.20
72883;DHT22;61017;37.812;-122.286;2023-07-16T06:13:49;17.90;98.20
72883;DHT22;61017;37.812;-122.286;2023-07-16T06:15:21;17.80;98.20
72883;DHT22;61017;37.812;-122.286;2023-07-16T06:16:53;17.80;98.10
72883;DHT22;61017;37.812;-122.286;2023-07-16T06:18:24;17.90;98.20
72883;DHT22;61017;37.812;-122.286;2023-07-16T06:19:56;17.80;98.10
72883;DHT22;61017;37.812;-122.286;2023-07-16T06:21:27;17.90;98.20
72883;DHT22;61017;37.812;-122.286;2023-07-16T06:22:59;17.90;98.20
72883;DHT22;61017;37.812;-122.286;2023-07-16T06:24:30;17.90;98.20
72883;DHT22;61017;37.812;-122.286;2023-07-16T06:26:02;17.90;98.20
72883;DHT22;61017;37.812;-122.286;2023-07-16T06:27:33;17.80;98.10
72883;DHT22;61017;37.812;-122.286;2023-07-16T06:29:05;17.80;98.10
72883;DHT22;61017;37.812;-122.286;2023-07-16T06:30:37;17.80;98.10
72883;DHT22;61017;37.812;-122.286;2023-07-16T06:32:10;17.80;98.10
72883;DHT22;61017;37.812;-122.286;2023-07-16T06:33:41;17.90;98.10
72883;DHT22;61017;37.812;-122.286;2023-07-16T06:35:13;17.80;98.10
72883;DHT22;61017;37.812;-122.286;2023-07-16T06:36:44;17.90;98.20
72883;DHT22;61017;37.812;-122.286;2023-07-16T06:38:16;17.80;98.10
72883;DHT22;61017;37.812;-122.286;2023-07-16T06:39:47;17.80;98.10
72883;DHT22;61017;37.812;-122.286;2023-07-16T06:41:19;17.80;98.10
72883;DHT22;61017;37.812;-122.286;2023-07-16T06:42:51;17.80;98.10
72883;DHT22;61017;37.812;-122.286;2023-07-16T06:44:22;17.90;98.10
72883;DHT22;61017;37.812;-122.286;2023-07-16T06:45:54;17.90;98.10
72883;DHT22;61017;37.812;-122.286;2023-07-16T06:47:26;17.90;98.10
72883;DHT22;61017;37.812;-122.286;2023-07-16T06:49:00;17.80;98.10
72883;DHT22;61017;37.812;-122.286;2023-07-16T06:50:35;17.80;98.00
72883;DHT22;61017;37.812;-122.286;2023-07-16T06:52:06;17.90;98.10
72883;DHT22;61017;37.812;-122.286;2023-07-16T06:53:38;17.80;98.00
72883;DHT22;61017;37.812;-122.286;2023-07-16T06:55:10;17.80;98.10
72883;DHT22;61017;37.812;-122.286;2023-07-16T06:56:41;17.80;98.00
72883;DHT22;61017;37.812;-122.286;2023-07-16T06:58:14;17.80;98.00
72883;DHT22;61017;37.812;-122.286;2023-07-16T06:59:45;17.80;98.00
72883;DHT22;61017;37.812;-122.286;2023-07-16T07:01:20;17.80;98.00
72883;DHT22;61017;37.812;-122.286;2023-07-16T07:02:52;17.80;98.00
72883;DHT22;61017;37.812;-122.286;2023-07-16T07:04:23;17.80;98.00
72883;DHT22;61017;37.812;-122.286;2023-07-16T07:05:55;17.80;98.00
72883;DHT22;61017;37.812;-122.286;2023-07-16T07:07:26;17.80;98.00
72883;DHT22;61017;37.812;-122.286;2023-07-16T07:08:58;17.80;98.00
72883;DHT22;61017;37.812;-122.286;2023-07-16T07:10:29;17.80;98.00
72883;DHT22;61017;37.812;-122.286;2023-07-16T07:12:01;17.80;98.00
72883;DHT22;61017;37.812;-122.286;2023-07-16T07:13:33;17.80;98.00
72883;DHT22;61017;37.812;-122.286;2023-07-16T07:15:07;17.80;98.00
72883;DHT22;61017;37.812;-122.286;2023-07-16T07:16:39;17.80;98.00
72883;DHT22;61017;37.812;-122.286;2023-07-16T07:18:11;17.80;97.90
72883;DHT22;61017;37.812;-122.286;2023-07-16T07:19:43;17.80;97.90
72883;DHT22;61017;37.812;-122.286;2023-07-16T07:21:15;17.80;97.90
72883;DHT22;61017;37.812;-122.286;2023-07-16T07:22:46;17.80;97.90
72883;DHT22;61017;37.812;-122.286;2023-07-16T07:24:18;17.80;97.90
72883;DHT22;61017;37.812;-122.286;2023-07-16T07:25:51;17.80;97.90
72883;DHT22;61017;37.812;-122.286;2023-07-16T07:27:25;17.80;97.90
72883;DHT22;61017;37.812;-122.286;2023-07-16T07:28:57;17.80;97.90
72883;DHT22;61017;37.812;-122.286;2023-07-16T07:30:29;17.80;97.90
72883;DHT22;61017;37.812;-122.286;2023-07-16T07:32:03;17.80;97.90
72883;DHT22;61017;37.812;-122.286;2023-07-16T07:33:35;17.80;97.90
72883;DHT22;61017;37.812;-122.286;2023-07-16T07:35:07;17.80;97.80
72883;DHT22;61017;37.812;-122.286;2023-07-16T07:36:38;17.80;97.90
72883;DHT22;61017;37.812;-122.286;2023-07-16T07:38:10;17.80;97.80
72883;DHT22;61017;37.812;-122.286;2023-07-16T07:39:41;17.80;97.80
72883;DHT22;61017;37.812;-122.286;2023-07-16T07:41:13;17.80;97.80
72883;DHT22;61017;37.812;-122.286;2023-07-16T07:42:44;17.80;97.80
72883;DHT22;61017;37.812;-122.286;2023-07-16T07:44:16;17.80;97.80
72883;DHT22;61017;37.812;-122.286;2023-07-16T07:45:48;17.80;97.80
72883;DHT22;61017;37.812;-122.286;2023-07-16T07:47:19;17.80;97.80
72883;DHT22;61017;37.812;-122.286;2023-07-16T07:48:51;17.80;97.80
72883;DHT22;61017;37.812;-122.286;2023-07-16T07:50:22;17.80;97.80
72883;DHT22;61017;37.812;-122.286;2023-07-16T07:51:54;17.80;97.80
72883;DHT22;61017;37.812;-122.286;2023-07-16T07:53:25;17.80;97.80
72883;DHT22;61017;37.812;-122.286;2023-07-16T07:54:57;17.80;97.80
72883;DHT22;61017;37.812;-122.286;2023-07-16T07:56:28;17.80;97.80
72883;DHT22;61017;37.812;-122.286;2023-07-16T07:58:00;17.80;97.80
72883;DHT22;61017;37.812;-122.286;2023-07-16T07:59:32;17.80;97.80
72883;DHT22;61017;37.812;-122.286;2023-07-16T08:01:05;17.80;97.70
72883;DHT22;61017;37.812;-122.286;2023-07-16T08:02:38;17.80;98.10
72883;DHT22;61017;37.812;-122.286;2023-07-16T08:04:09;17.80;97.80
72883;DHT22;61017;37.812;-122.286;2023-07-16T08:05:41;17.80;97.70
72883;DHT22;61017;37.812;-122.286;2023-07-16T08:07:13;17.80;97.80
72883;DHT22;61017;37.812;-122.286;2023-07-16T08:08:44;17.80;97.70
72883;DHT22;61017;37.812;-122.286;2023-07-16T08:10:16;17.80;97.70
72883;DHT22;61017;37.812;-122.286;2023-07-16T08:11:47;17.80;97.70
72883;DHT22;61017;37.812;-122.286;2023-07-16T08:13:19;17.80;97.70
72883;DHT22;61017;37.812;-122.286;2023-07-16T08:14:50;17.80;97.70
72883;DHT22;61017;37.812;-122.286;2023-07-16T08:16:22;17.80;97.70
72883;DHT22;61017;37.812;-122.286;2023-07-16T08:17:54;17.80;97.70
72883;DHT22;61017;37.812;-122.286;2023-07-16T08:19:25;17.80;97.70
72883;DHT22;61017;37.812;-122.286;2023-07-16T08:20:57;17.80;97.70
72883;DHT22;61017;37.812;-122.286;2023-07-16T08:22:28;17.80;97.70
72883;DHT22;61017;37.812;-122.286;2023-07-16T08:24:00;17.80;97.70
72883;DHT22;61017;37.812;-122.286;2023-07-16T08:25:31;17.80;97.70
72883;DHT22;61017;37.812;-122.286;2023-07-16T08:27:03;17.80;97.60
72883;DHT22;61017;37.812;-122.286;2023-07-16T08:28:35;17.80;97.70
72883;DHT22;61017;37.812;-122.286;2023-07-16T08:30:07;17.80;97.60
72883;DHT22;61017;37.812;-122.286;2023-07-16T08:31:38;17.80;97.60
72883;DHT22;61017;37.812;-122.286;2023-07-16T08:33:10;17.80;97.60
72883;DHT22;61017;37.812;-122.286;2023-07-16T08:34:42;17.80;97.60
72883;DHT22;61017;37.812;-122.286;2023-07-16T08:36:13;17.80;97.60
72883;DHT22;61017;37.812;-122.286;2023-07-16T08:37:45;17.80;97.60
72883;DHT22;61017;37.812;-122.286;2023-07-16T08:39:17;17.80;97.60
72883;DHT22;61017;37.812;-122.286;2023-07-16T08:40:49;17.80;97.60
72883;DHT22;61017;37.812;-122.286;2023-07-16T08:42:21;17.80;97.60
72883;DHT22;61017;37.812;-122.286;2023-07-16T08:43:53;17.80;97.60
72883;DHT22;61017;37.812;-122.286;2023-07-16T08:45:26;17.80;97.60
72883;DHT22;61017;37.812;-122.286;2023-07-16T08:46:59;17.80;97.60
72883;DHT22;61017;37.812;-122.286;2023-07-16T08:48:31;17.80;97.60
72883;DHT22;61017;37.812;-122.286;2023-07-16T08:50:03;17.80;97.60
72883;DHT22;61017;37.812;-122.286;2023-07-16T08:51:35;17.80;97.60
72883;DHT22;61017;37.812;-122.286;2023-07-16T08:53:08;17.80;97.60
72883;DHT22;61017;37.812;-122.286;2023-07-16T08:54:39;17.80;97.60
72883;DHT22;61017;37.812;-122.286;2023-07-16T08:56:11;17.80;97.60
72883;DHT22;61017;37.812;-122.286;2023-07-16T08:57:43;17.80;97.50
72883;DHT22;61017;37.812;-122.286;2023-07-16T08:59:15;17.80;97.50
72883;DHT22;61017;37.812;-122.286;2023-07-16T09:00:48;17.80;97.50
72883;DHT22;61017;37.812;-122.286;2023-07-16T09:02:20;17.80;97.50
72883;DHT22;61017;37.812;-122.286;2023-07-16T09:03:51;17.80;97.50
72883;DHT22;61017;37.812;-122.286;2023-07-16T09:05:23;17.80;97.50
72883;DHT22;61017;37.812;-122.286;2023-07-16T09:06:55;17.70;97.50
72883;DHT22;61017;37.812;-122.286;2023-07-16T09:08:26;17.80;97.50
72883;DHT22;61017;37.812;-122.286;2023-07-16T09:09:59;17.80;97.50
72883;DHT22;61017;37.812;-122.286;2023-07-16T09:11:30;17.70;97.50
72883;DHT22;61017;37.812;-122.286;2023-07-16T09:13:02;17.70;97.50
72883;DHT22;61017;37.812;-122.286;2023-07-16T09:14:34;17.70;97.50
72883;DHT22;61017;37.812;-122.286;2023-07-16T09:16:05;17.80;97.50
72883;DHT22;61017;37.812;-122.286;2023-07-16T09:17:37;17.80;97.50
72883;DHT22;61017;37.812;-122.286;2023-07-16T09:19:12;17.80;97.50